createdAt,value
2022-10-17T00:00:21.554Z,99.99
2022-10-17T00:01:21.627Z,99.99
2022-10-17T00:02:21.558Z,99.99
2022-10-17T00:03:21.519Z,99.99
2022-10-17T00:04:21.865Z,99.99
2022-10-17T00:05:21.487Z,99.99
2022-10-17T00:06:21.502Z,99.99
2022-10-17T00:07:21.490Z,99.99
2022-10-17T00:08:21.449Z,99.99
2022-10-17T00:09:21.434Z,99.99
2022-10-17T00:10:21.420Z,99.99
2022-10-17T00:11:21.423Z,99.99
2022-10-17T00:12:21.430Z,99.99
2022-10-17T00:13:21.490Z,99.99
2022-10-17T00:14:21.392Z,99.99
2022-10-17T00:15:21.374Z,99.99
2022-10-17T00:16:21.356Z,99.99
2022-10-17T00:17:21.363Z,99.99
2022-10-17T00:18:21.326Z,99.99
2022-10-17T00:19:21.372Z,99.99
2022-10-17T00:20:21.372Z,99.99
2022-10-17T00:21:21.334Z,99.99
2022-10-17T00:22:21.345Z,99.99
2022-10-17T00:23:21.289Z,99.99
2022-10-17T00:24:21.305Z,99.99
2022-10-17T00:25:21.261Z,99.99
2022-10-17T00:26:21.243Z,99.99
2022-10-17T00:27:21.323Z,99.99
2022-10-17T00:28:21.290Z,99.99
2022-10-17T00:29:21.239Z,99.99
2022-10-17T00:30:21.244Z,99.99
2022-10-17T00:31:21.249Z,99.99
2022-10-17T00:32:21.210Z,99.99
2022-10-17T00:33:21.169Z,99.99
2022-10-17T00:34:21.181Z,99.99
2022-10-17T00:35:21.167Z,99.99
2022-10-17T00:36:21.143Z,99.99
2022-10-17T00:37:21.186Z,99.99
2022-10-17T00:38:21.147Z,99.99
2022-10-17T00:39:21.103Z,99.99
2022-10-17T00:40:21.104Z,99.99
2022-10-17T00:41:21.116Z,99.99
2022-10-17T00:42:21.073Z,99.99
2022-10-17T00:43:21.126Z,99.99
2022-10-17T00:44:21.042Z,99.99
2022-10-17T00:45:21.047Z,99.99
2022-10-17T00:46:21.068Z,99.99
2022-10-17T00:47:21.021Z,99.99
2022-10-17T00:48:23.204Z,99.99
2022-10-17T00:49:21.082Z,99.99
2022-10-17T00:50:21.026Z,99.99
2022-10-17T00:51:20.985Z,99.99
2022-10-17T00:52:20.989Z,99.99
2022-10-17T00:53:20.944Z,99.99
2022-10-17T00:54:20.995Z,99.99
2022-10-17T00:55:20.924Z,99.99
2022-10-17T00:56:20.919Z,99.99
2022-10-17T00:57:20.918Z,99.99
2022-10-17T00:58:20.933Z,99.99
2022-10-17T00:59:20.934Z,99.99
2022-10-17T01:00:20.907Z,99.99
2022-10-17T01:01:20.926Z,99.99
2022-10-17T01:02:20.875Z,99.99
2022-10-17T01:03:20.861Z,99.99
2022-10-17T01:04:20.864Z,99.99
2022-10-17T01:05:20.867Z,99.99
2022-10-17T01:06:20.831Z,99.99
2022-10-17T01:07:20.839Z,99.99
2022-10-17T01:08:20.802Z,99.99
2022-10-17T01:09:20.764Z,99.99
2022-10-17T01:10:20.802Z,99.99
2022-10-17T01:11:20.759Z,99.99
2022-10-17T01:12:20.828Z,99.99
2022-10-17T01:13:20.728Z,99.99
2022-10-17T01:14:20.722Z,99.99
2022-10-17T01:15:20.739Z,99.99
2022-10-17T01:16:20.697Z,99.99
2022-10-17T01:17:20.701Z,99.99
2022-10-17T01:18:20.715Z,99.99
2022-10-17T01:19:20.708Z,99.99
2022-10-17T01:20:20.672Z,99.99
2022-10-17T01:21:20.643Z,99.99
2022-10-17T01:22:20.631Z,99.99
2022-10-17T01:23:20.641Z,99.99
2022-10-17T01:24:20.650Z,99.99
2022-10-17T01:25:20.610Z,99.99
2022-10-17T01:26:20.612Z,99.99
2022-10-17T01:27:20.618Z,99.99
2022-10-17T01:28:20.608Z,99.99
2022-10-17T01:29:20.586Z,99.99
2022-10-17T01:30:20.589Z,99.99
2022-10-17T01:31:20.544Z,99.99
2022-10-17T01:32:20.545Z,99.99
2022-10-17T01:33:20.504Z,99.99
2022-10-17T01:34:20.568Z,99.99
2022-10-17T01:35:20.475Z,99.99
2022-10-17T01:36:20.476Z,99.99
2022-10-17T01:37:20.474Z,99.99
2022-10-17T01:38:20.479Z,99.99
2022-10-17T01:39:20.493Z,99.99
2022-10-17T01:40:20.498Z,99.99
2022-10-17T01:41:20.408Z,99.99
2022-10-17T01:42:20.420Z,99.99
2022-10-17T01:43:20.419Z,99.99
2022-10-17T01:44:20.380Z,99.99
2022-10-17T01:45:20.424Z,99.99
2022-10-17T01:46:20.854Z,99.99
2022-10-17T01:47:20.347Z,99.99
2022-10-17T01:48:20.361Z,99.99
2022-10-17T01:49:20.353Z,99.99
2022-10-17T01:50:20.320Z,99.99
2022-10-17T01:51:20.322Z,99.99
2022-10-17T01:52:20.329Z,99.99
2022-10-17T01:53:20.295Z,99.99
2022-10-17T01:54:20.353Z,99.99
2022-10-17T01:55:20.292Z,99.99
2022-10-17T01:56:20.254Z,99.99
2022-10-17T01:57:20.267Z,99.99
2022-10-17T01:58:20.220Z,99.99
2022-10-17T01:59:20.219Z,99.99
2022-10-17T02:00:20.223Z,99.99
2022-10-17T02:01:20.242Z,99.99
2022-10-17T02:02:20.245Z,99.99
2022-10-17T02:03:20.202Z,99.99
2022-10-17T02:04:20.207Z,99.99
2022-10-17T02:05:20.163Z,99.99
2022-10-17T02:06:20.168Z,99.99
2022-10-17T02:07:20.198Z,99.99
2022-10-17T02:08:20.104Z,99.99
2022-10-17T02:09:20.116Z,99.99
2022-10-17T02:10:20.105Z,99.99
2022-10-17T02:11:20.158Z,99.99
2022-10-17T02:12:20.108Z,99.99
2022-10-17T02:13:20.044Z,99.99
2022-10-17T02:14:20.074Z,99.99
2022-10-17T02:15:20.038Z,99.99
2022-10-17T02:16:20.037Z,99.99
2022-10-17T02:17:20.034Z,99.99
2022-10-17T02:18:20.050Z,99.99
2022-10-17T02:19:19.985Z,99.99
2022-10-17T02:20:19.977Z,99.99
2022-10-17T02:21:20.025Z,99.99
2022-10-17T02:22:20.003Z,99.99
2022-10-17T02:23:19.984Z,99.99
2022-10-17T02:24:19.945Z,99.99
2022-10-17T02:25:19.922Z,99.99
2022-10-17T02:26:19.952Z,99.99
2022-10-17T02:27:19.909Z,99.99
2022-10-17T02:28:19.909Z,99.99
2022-10-17T02:29:19.916Z,99.99
2022-10-17T02:30:19.883Z,99.99
2022-10-17T02:31:19.898Z,99.99
2022-10-17T02:32:22.885Z,99.99
2022-10-17T02:33:19.839Z,99.99
2022-10-17T02:34:19.854Z,99.99
2022-10-17T02:35:19.809Z,99.99
2022-10-17T02:36:19.793Z,99.99
2022-10-17T02:37:19.869Z,99.99
2022-10-17T02:38:19.829Z,99.99
2022-10-17T02:39:19.777Z,99.99
2022-10-17T02:40:19.786Z,99.99
2022-10-17T02:41:19.807Z,99.99
2022-10-17T02:42:19.730Z,99.99
2022-10-17T02:43:19.762Z,99.99
2022-10-17T02:44:19.724Z,99.99
2022-10-17T02:45:19.726Z,99.99
2022-10-17T02:46:19.681Z,99.99
2022-10-17T02:47:19.687Z,99.99
2022-10-17T02:48:19.742Z,99.99
2022-10-17T02:49:19.701Z,99.99
2022-10-17T02:50:19.715Z,99.99
2022-10-17T02:51:19.663Z,99.99
2022-10-17T02:52:19.620Z,99.99
2022-10-17T02:53:19.600Z,99.99
2022-10-17T02:54:19.645Z,99.99
2022-10-17T02:55:19.641Z,99.99
2022-10-17T02:56:19.598Z,99.99
2022-10-17T02:57:19.592Z,99.99
2022-10-17T02:58:19.564Z,99.99
2022-10-17T02:59:19.611Z,99.99
2022-10-17T03:00:19.574Z,99.99
2022-10-17T03:01:19.577Z,99.99
2022-10-17T03:02:19.533Z,99.99
2022-10-17T03:03:19.494Z,99.99
2022-10-17T03:04:19.510Z,99.99
2022-10-17T03:05:19.868Z,99.99
2022-10-17T03:06:19.463Z,99.99
2022-10-17T03:07:19.472Z,99.99
2022-10-17T03:08:19.476Z,99.99
2022-10-17T03:09:19.475Z,99.99
2022-10-17T03:10:19.432Z,99.99
2022-10-17T03:11:19.447Z,99.99
2022-10-17T03:12:19.407Z,99.99
2022-10-17T03:13:19.398Z,99.99
2022-10-17T03:14:19.406Z,99.99
2022-10-17T03:15:19.371Z,99.99
2022-10-17T03:16:19.352Z,99.99
2022-10-17T03:17:19.451Z,99.99
2022-10-17T03:18:19.344Z,99.99
2022-10-17T03:19:19.348Z,99.99
2022-10-17T03:20:19.302Z,99.99
2022-10-17T03:21:19.284Z,99.99
2022-10-17T03:22:19.361Z,99.99
2022-10-17T03:23:19.275Z,99.99
2022-10-17T03:24:19.282Z,99.99
2022-10-17T03:25:19.287Z,99.99
2022-10-17T03:26:19.265Z,99.99
2022-10-17T03:27:19.218Z,99.99
2022-10-17T03:28:19.258Z,99.99
2022-10-17T03:29:19.236Z,99.99
2022-10-17T03:30:19.206Z,99.99
2022-10-17T03:31:19.217Z,99.99
2022-10-17T03:32:19.184Z,99.99
2022-10-17T03:33:19.239Z,99.99
2022-10-17T03:34:19.169Z,99.99
2022-10-17T03:35:19.152Z,99.99
2022-10-17T03:36:19.162Z,99.99
2022-10-17T03:37:19.155Z,99.99
2022-10-17T03:38:19.161Z,99.99
2022-10-17T03:39:19.128Z,99.99
2022-10-17T03:40:19.112Z,99.99
2022-10-17T03:41:19.079Z,99.99
2022-10-17T03:42:19.082Z,99.99
2022-10-17T03:43:19.056Z,99.99
2022-10-17T03:44:19.059Z,99.99
2022-10-17T03:45:19.070Z,99.99
2022-10-17T03:46:19.264Z,99.99
2022-10-17T03:47:19.034Z,99.99
2022-10-17T03:48:19.025Z,99.99
2022-10-17T03:49:19.042Z,99.99
2022-10-17T03:50:18.981Z,99.99
2022-10-17T03:51:18.955Z,99.99
2022-10-17T03:52:18.963Z,99.99
2022-10-17T03:53:18.964Z,99.99
2022-10-17T03:54:18.964Z,99.99
2022-10-17T03:55:18.984Z,99.99
2022-10-17T03:56:18.922Z,99.99
2022-10-17T03:57:18.894Z,99.99
2022-10-17T03:58:18.956Z,99.99
2022-10-17T03:59:18.908Z,99.99
2022-10-17T04:00:18.891Z,99.99
2022-10-17T04:01:18.944Z,99.99
2022-10-17T04:02:18.886Z,99.99
2022-10-17T04:03:18.835Z,99.99
2022-10-17T04:04:18.831Z,99.99
2022-10-17T04:05:18.835Z,99.99
2022-10-17T04:06:18.782Z,99.99
2022-10-17T04:07:18.847Z,99.99
2022-10-17T04:08:18.863Z,99.99
2022-10-17T04:09:18.774Z,99.99
2022-10-17T04:10:18.770Z,99.99
2022-10-17T04:11:18.788Z,99.99
2022-10-17T04:12:18.714Z,99.99
2022-10-17T04:13:18.729Z,99.99
2022-10-17T04:14:18.722Z,99.99
2022-10-17T04:15:18.702Z,99.99
2022-10-17T04:16:18.710Z,99.99
2022-10-17T04:17:18.729Z,99.99
2022-10-17T04:18:18.735Z,99.99
2022-10-17T04:19:18.664Z,99.99
2022-10-17T04:20:18.651Z,99.99
2022-10-17T04:21:18.639Z,99.99
2022-10-17T04:22:18.648Z,99.99
2022-10-17T04:23:18.591Z,99.99
2022-10-17T04:24:18.666Z,99.99
2022-10-17T04:25:18.576Z,99.99
2022-10-17T04:26:18.588Z,99.99
2022-10-17T04:27:18.579Z,99.99
2022-10-17T04:28:18.609Z,99.99
2022-10-17T04:29:18.525Z,99.99
2022-10-17T04:30:18.563Z,99.99
2022-10-17T04:31:18.546Z,99.99
2022-10-17T04:32:18.525Z,99.99
2022-10-17T04:33:18.526Z,99.99
2022-10-17T04:34:18.527Z,99.99
2022-10-17T04:35:18.465Z,99.99
2022-10-17T04:36:18.474Z,99.99
2022-10-17T04:37:18.456Z,99.99
2022-10-17T04:38:18.470Z,99.99
2022-10-17T04:39:18.471Z,99.99
2022-10-17T04:40:18.400Z,99.99
2022-10-17T04:41:18.404Z,99.99
2022-10-17T04:42:18.389Z,99.99
2022-10-17T04:43:18.396Z,99.99
2022-10-17T04:44:18.402Z,99.99
2022-10-17T04:45:18.404Z,99.99
2022-10-17T04:46:18.354Z,99.99
2022-10-17T04:47:18.332Z,99.99
2022-10-17T04:48:18.327Z,99.99
2022-10-17T04:49:18.359Z,99.99
2022-10-17T04:50:18.337Z,99.99
2022-10-17T04:51:20.616Z,99.99
2022-10-17T04:52:18.285Z,99.99
2022-10-17T04:53:18.260Z,99.99
2022-10-17T04:54:18.266Z,99.99
2022-10-17T04:55:18.273Z,99.99
2022-10-17T04:56:18.227Z,99.99
2022-10-17T04:57:18.209Z,99.99
2022-10-17T04:58:18.224Z,99.99
2022-10-17T04:59:18.229Z,99.99
2022-10-17T05:00:18.206Z,99.99
2022-10-17T05:01:18.246Z,99.99
2022-10-17T05:02:18.174Z,99.99
2022-10-17T05:03:18.144Z,99.99
2022-10-17T05:04:21.110Z,99.99
2022-10-17T05:05:19.155Z,99.99
2022-10-17T05:06:18.136Z,99.99
2022-10-17T05:07:18.142Z,99.99
2022-10-17T05:08:18.087Z,99.99
2022-10-17T05:09:18.291Z,99.99
2022-10-17T05:10:18.070Z,99.99
2022-10-17T05:11:18.077Z,99.99
2022-10-17T05:12:18.087Z,99.99
2022-10-17T05:13:18.086Z,99.99
2022-10-17T05:14:18.020Z,99.99
2022-10-17T05:15:18.013Z,99.99
2022-10-17T05:16:18.016Z,99.99
2022-10-17T05:17:18.044Z,99.99
2022-10-17T05:18:18.017Z,99.99
2022-10-17T05:19:17.963Z,99.99
2022-10-17T05:20:17.960Z,99.99
2022-10-17T05:21:17.965Z,99.99
2022-10-17T05:22:17.973Z,99.99
2022-10-17T05:23:18.009Z,99.99
2022-10-17T05:24:17.965Z,99.99
2022-10-17T05:25:17.896Z,99.99
2022-10-17T05:26:17.896Z,99.99
2022-10-17T05:27:17.881Z,99.99
2022-10-17T05:28:17.888Z,99.99
2022-10-17T05:29:17.901Z,99.99
2022-10-17T05:30:17.861Z,99.99
2022-10-17T05:31:17.832Z,99.99
2022-10-17T05:32:18.348Z,99.99
2022-10-17T05:33:17.847Z,99.99
2022-10-17T05:34:17.843Z,99.99
2022-10-17T05:35:17.824Z,99.99
2022-10-17T05:36:17.830Z,99.99
2022-10-17T05:37:17.777Z,99.99
2022-10-17T05:38:17.751Z,99.99
2022-10-17T05:39:17.762Z,99.99
2022-10-17T05:40:17.762Z,99.99
2022-10-17T05:41:17.724Z,99.99
2022-10-17T05:42:17.775Z,99.99
2022-10-17T05:43:17.694Z,99.99
2022-10-17T05:44:17.701Z,99.99
2022-10-17T05:45:17.697Z,99.99
2022-10-17T05:46:17.695Z,99.99
2022-10-17T05:47:17.666Z,99.99
2022-10-17T05:48:17.713Z,99.99
2022-10-17T05:49:32.013Z,99.99
2022-10-17T05:50:18.634Z,99.99
2022-10-17T05:51:17.637Z,99.99
2022-10-17T05:52:17.651Z,99.99
2022-10-17T05:53:17.584Z,99.99
2022-10-17T05:54:17.577Z,99.99
2022-10-17T05:55:17.589Z,99.99
2022-10-17T05:56:17.568Z,99.99
2022-10-17T05:57:17.580Z,99.99
2022-10-17T05:58:22.057Z,99.99
2022-10-17T05:59:17.519Z,99.99
2022-10-17T06:00:17.522Z,99.99
2022-10-17T06:01:17.513Z,99.99
2022-10-17T06:02:17.674Z,99.99
2022-10-17T06:03:17.507Z,99.99
2022-10-17T06:04:17.475Z,99.99
2022-10-17T06:05:17.476Z,99.99
2022-10-17T06:06:17.532Z,99.99
2022-10-17T06:07:17.442Z,99.99
2022-10-17T06:08:17.446Z,99.99
2022-10-17T06:09:17.450Z,99.99
2022-10-17T06:10:17.891Z,99.99
2022-10-17T06:11:17.399Z,99.99
2022-10-17T06:12:17.402Z,99.99
2022-10-17T06:13:17.412Z,99.99
2022-10-17T06:14:17.412Z,99.99
2022-10-17T06:15:17.497Z,99.99
2022-10-17T06:16:17.323Z,99.99
2022-10-17T06:17:17.332Z,99.99
2022-10-17T06:18:17.316Z,99.99
2022-10-17T06:19:17.312Z,99.99
2022-10-17T06:20:17.341Z,99.99
2022-10-17T06:21:17.852Z,99.99
2022-10-17T06:22:17.278Z,99.99
2022-10-17T06:23:17.273Z,99.99
2022-10-17T06:24:17.247Z,99.99
2022-10-17T06:25:17.243Z,99.99
2022-10-17T06:26:17.241Z,99.99
2022-10-17T06:27:17.230Z,99.99
2022-10-17T06:28:17.234Z,99.99
2022-10-17T06:29:17.187Z,99.99
2022-10-17T06:30:17.191Z,99.99
2022-10-17T06:31:17.172Z,99.99
2022-10-17T06:32:17.197Z,99.99
2022-10-17T06:33:17.171Z,99.99
2022-10-17T06:34:17.148Z,99.99
2022-10-17T06:35:17.130Z,99.99
2022-10-17T06:36:17.126Z,99.99
2022-10-17T06:37:17.096Z,99.99
2022-10-17T06:38:17.095Z,99.99
2022-10-17T06:39:17.087Z,99.99
2022-10-17T06:40:17.061Z,99.99
2022-10-17T06:41:17.058Z,99.99
2022-10-17T06:42:17.054Z,99.99
2022-10-17T06:43:17.027Z,99.99
2022-10-17T06:44:25.433Z,99.99
2022-10-17T06:45:17.008Z,99.99
2022-10-17T06:46:17.001Z,99.99
2022-10-17T06:47:19.924Z,99.99
2022-10-17T06:48:16.998Z,99.99
2022-10-17T06:49:17.069Z,99.99
2022-10-17T06:50:16.944Z,99.99
2022-10-17T06:51:16.946Z,99.99
2022-10-17T06:52:16.930Z,99.99
2022-10-17T06:53:17.863Z,99.99
2022-10-17T06:54:16.925Z,99.99
2022-10-17T06:55:19.960Z,99.99
2022-10-17T06:56:17.882Z,99.99
2022-10-17T06:57:16.865Z,99.99
2022-10-17T06:58:16.889Z,99.99
2022-10-17T06:59:16.868Z,99.99
2022-10-17T07:00:16.872Z,99.99
2022-10-17T07:01:16.819Z,99.99
2022-10-17T07:02:16.827Z,99.99
2022-10-17T07:03:16.808Z,99.99
2022-10-17T07:04:16.810Z,99.99
2022-10-17T07:05:16.821Z,99.99
2022-10-17T07:06:16.767Z,99.99
2022-10-17T07:07:16.757Z,99.99
2022-10-17T07:08:16.762Z,99.99
2022-10-17T07:09:16.749Z,99.99
2022-10-17T07:10:16.761Z,99.99
2022-10-17T07:11:17.372Z,99.99
2022-10-17T07:12:16.697Z,99.99
2022-10-17T07:13:16.702Z,99.99
2022-10-17T07:14:16.679Z,99.99
2022-10-17T07:15:16.713Z,99.99
2022-10-17T07:16:16.679Z,99.99
2022-10-17T07:17:16.645Z,99.99
2022-10-17T07:18:16.627Z,99.99
2022-10-17T07:19:16.643Z,99.99
2022-10-17T07:20:16.621Z,99.99
2022-10-17T07:21:16.626Z,99.99
2022-10-17T07:22:16.624Z,99.99
2022-10-17T07:23:16.581Z,99.99
2022-10-17T07:24:16.563Z,99.99
2022-10-17T07:25:16.580Z,99.99
2022-10-17T07:26:16.570Z,99.99
2022-10-17T07:27:16.560Z,99.99
2022-10-17T07:28:16.563Z,99.99
2022-10-17T07:29:16.532Z,99.99
2022-10-17T07:30:16.502Z,99.99
2022-10-17T07:31:16.516Z,99.99
2022-10-17T07:32:16.498Z,99.99
2022-10-17T07:33:16.477Z,99.99
2022-10-17T07:34:16.469Z,99.99
2022-10-17T07:35:16.442Z,99.99
2022-10-17T07:36:16.446Z,99.99
2022-10-17T07:37:16.429Z,99.99
2022-10-17T07:38:16.408Z,99.99
2022-10-17T07:39:16.398Z,99.99
2022-10-17T07:40:16.405Z,99.99
2022-10-17T07:41:19.299Z,99.99
2022-10-17T07:42:17.403Z,99.99
2022-10-17T07:43:16.368Z,99.99
2022-10-17T07:44:16.382Z,99.99
2022-10-17T07:45:16.333Z,99.99
2022-10-17T07:46:16.329Z,99.99
2022-10-17T07:47:16.904Z,99.99
2022-10-17T07:48:16.308Z,99.99
2022-10-17T07:49:16.306Z,99.99
2022-10-17T07:50:16.274Z,99.99
2022-10-17T07:51:16.282Z,99.99
2022-10-17T07:52:16.249Z,99.99
2022-10-17T07:53:16.269Z,99.99
2022-10-17T07:54:16.238Z,99.99
2022-10-17T07:55:16.251Z,99.99
2022-10-17T07:56:16.206Z,99.99
2022-10-17T07:57:16.214Z,99.99
2022-10-17T07:58:16.202Z,99.99
2022-10-17T07:59:16.174Z,99.99
2022-10-17T08:00:16.177Z,99.99
2022-10-17T08:01:16.386Z,99.99
2022-10-17T08:02:16.143Z,99.99
2022-10-17T08:03:16.139Z,99.99
2022-10-17T08:04:16.123Z,99.99
2022-10-17T08:05:16.135Z,99.99
2022-10-17T08:06:16.127Z,99.99
2022-10-17T08:07:23.082Z,99.99
2022-10-17T08:08:17.075Z,99.99
2022-10-17T08:09:16.089Z,99.99
2022-10-17T08:10:16.052Z,99.99
2022-10-17T08:11:16.057Z,99.99
2022-10-17T08:12:16.058Z,99.99
2022-10-17T08:13:16.018Z,99.99
2022-10-17T08:14:16.036Z,99.99
2022-10-17T08:15:16.026Z,99.99
2022-10-17T08:16:15.982Z,99.99
2022-10-17T08:17:16.030Z,99.99
2022-10-17T08:18:15.961Z,99.99
2022-10-17T08:19:15.961Z,99.99
2022-10-17T08:20:15.980Z,99.99
2022-10-17T08:21:15.937Z,99.99
2022-10-17T08:22:15.919Z,99.99
2022-10-17T08:23:15.938Z,99.99
2022-10-17T08:24:15.922Z,99.99
2022-10-17T08:25:15.895Z,99.99
2022-10-17T08:26:15.893Z,99.99
2022-10-17T08:27:15.865Z,99.99
2022-10-17T08:28:15.865Z,99.99
2022-10-17T08:29:15.877Z,99.99
2022-10-17T08:30:15.848Z,99.99
2022-10-17T08:31:15.827Z,99.99
2022-10-17T08:32:15.840Z,99.99
2022-10-17T08:33:15.796Z,99.99
2022-10-17T08:34:15.810Z,99.99
2022-10-17T08:35:15.825Z,99.99
2022-10-17T08:36:15.763Z,99.99
2022-10-17T08:37:15.775Z,99.99
2022-10-17T08:38:16.884Z,99.99
2022-10-17T08:39:15.774Z,99.99
2022-10-17T08:40:15.729Z,99.99
2022-10-17T08:41:15.746Z,99.99
2022-10-17T08:42:15.707Z,99.99
2022-10-17T08:43:15.694Z,99.99
2022-10-17T08:44:15.702Z,99.99
2022-10-17T08:45:15.680Z,99.99
2022-10-17T08:47:15.639Z,99.99
2022-10-17T08:48:15.642Z,99.99
2022-10-17T08:49:15.647Z,99.99
2022-10-17T08:50:15.644Z,99.99
2022-10-17T08:51:15.614Z,99.73
2022-10-17T08:52:15.618Z,99.78
2022-10-17T08:53:15.577Z,99.58
2022-10-17T08:54:15.583Z,99.27
2022-10-17T08:55:15.584Z,98.56
2022-10-17T08:56:19.753Z,99.43
2022-10-17T08:57:16.578Z,99.43
2022-10-17T08:58:15.528Z,99.84
2022-10-17T08:59:15.529Z,99.53
2022-10-17T09:00:15.516Z,99.33
2022-10-17T09:01:15.499Z,99.22
2022-10-17T09:02:15.500Z,97.56
2022-10-17T09:03:15.598Z,98.11
2022-10-17T09:04:15.457Z,97.30
2022-10-17T09:05:15.455Z,97.09
2022-10-17T09:06:15.463Z,95.78
2022-10-17T09:07:15.425Z,96.23
2022-10-17T09:08:15.427Z,94.51
2022-10-17T09:09:15.418Z,95.53
2022-10-17T09:10:15.385Z,94.77
2022-10-17T09:11:15.392Z,93.15
2022-10-17T09:12:15.404Z,94.67
2022-10-17T09:13:15.431Z,93.10
2022-10-17T09:14:15.364Z,92.40
2022-10-17T09:15:15.371Z,91.89
2022-10-17T09:16:15.325Z,92.60
2022-10-17T09:17:15.318Z,91.74
2022-10-17T09:18:17.581Z,91.13
2022-10-17T09:19:15.295Z,91.85
2022-10-17T09:20:15.302Z,90.73
2022-10-17T09:21:15.262Z,89.61
2022-10-17T09:22:15.253Z,91.13
2022-10-17T09:23:15.242Z,91.50
2022-10-17T09:24:16.213Z,91.64
2022-10-17T09:25:15.234Z,91.50
2022-10-17T09:26:15.208Z,90.89
2022-10-17T09:27:15.198Z,91.19
2022-10-17T09:28:15.189Z,91.30
2022-10-17T09:29:15.184Z,91.46
2022-10-17T09:30:21.479Z,90.69
2022-10-17T09:31:16.296Z,90.34
2022-10-17T09:32:15.172Z,89.94
2022-10-17T09:33:28.075Z,90.30
2022-10-17T09:34:16.150Z,90.60
2022-10-17T09:35:15.924Z,90.50
2022-10-17T09:36:15.117Z,91.31
2022-10-17T09:37:15.116Z,90.91
2022-10-17T09:38:15.119Z,90.60
2022-10-17T09:39:15.231Z,91.11
2022-10-17T09:40:15.069Z,91.16
2022-10-17T09:41:39.210Z,90.36
2022-10-17T09:42:16.077Z,88.64
2022-10-17T09:43:15.021Z,88.94
2022-10-17T09:44:15.005Z,89.65
2022-10-17T09:45:15.019Z,88.59
2022-10-17T09:46:14.986Z,88.79
2022-10-17T09:47:14.982Z,88.25
2022-10-17T09:48:14.990Z,88.45
2022-10-17T09:49:17.210Z,86.83
2022-10-17T09:50:14.982Z,87.40
2022-10-17T09:51:25.712Z,88.21
2022-10-17T09:52:15.946Z,86.69
2022-10-17T09:53:14.922Z,87.81
2022-10-17T09:54:14.893Z,87.81
2022-10-17T09:55:14.882Z,88.61
2022-10-17T09:56:14.895Z,88.71
2022-10-17T09:57:14.900Z,87.90
2022-10-17T09:58:14.887Z,87.40
2022-10-17T09:59:14.847Z,87.26
2022-10-17T10:01:18.251Z,87.05
2022-10-17T10:02:14.983Z,87.05
2022-10-17T10:03:14.820Z,86.65
2022-10-17T10:04:14.794Z,86.81
2022-10-17T10:05:14.789Z,87.01
2022-10-17T10:06:14.822Z,85.90
2022-10-17T10:07:14.757Z,85.30
2022-10-17T10:08:14.754Z,85.30
2022-10-17T10:09:14.773Z,87.01
2022-10-17T10:10:14.724Z,86.61
2022-10-17T10:11:14.703Z,85.30
2022-10-17T10:12:14.706Z,86.71
2022-10-17T10:13:14.704Z,86.81
2022-10-17T10:14:14.689Z,86.81
2022-10-17T10:15:14.696Z,86.91
2022-10-17T10:16:14.662Z,86.21
2022-10-17T10:17:14.634Z,86.00
2022-10-17T10:18:14.635Z,85.30
2022-10-17T10:19:14.614Z,85.90
2022-10-17T10:20:14.628Z,86.71
2022-10-17T10:21:14.616Z,86.51
2022-10-17T10:22:14.596Z,86.36
2022-10-17T10:23:14.563Z,85.86
2022-10-17T10:24:14.554Z,85.76
2022-10-17T10:25:14.555Z,84.91
2022-10-17T10:26:16.813Z,85.31
2022-10-17T10:27:15.518Z,84.71
2022-10-17T10:28:14.550Z,83.40
2022-10-17T10:29:14.512Z,83.30
2022-10-17T10:30:14.487Z,83.50
2022-10-17T10:31:14.475Z,83.50
2022-10-17T10:32:14.483Z,84.41
2022-10-17T10:33:14.483Z,84.61
2022-10-17T10:34:14.441Z,84.61
2022-10-17T10:35:14.436Z,83.26
2022-10-17T10:36:14.424Z,84.57
2022-10-17T10:37:16.161Z,83.97
2022-10-17T10:38:14.433Z,83.26
2022-10-17T10:39:14.422Z,83.16
2022-10-17T10:40:14.373Z,83.76
2022-10-17T10:41:14.368Z,83.46
2022-10-17T10:42:14.394Z,84.67
2022-10-17T10:43:14.385Z,82.71
2022-10-17T10:44:14.361Z,83.46
2022-10-17T10:45:19.127Z,84.63
2022-10-17T10:46:15.324Z,83.36
2022-10-17T10:47:14.300Z,83.16
2022-10-17T10:48:14.284Z,84.47
2022-10-17T10:49:14.289Z,82.62
2022-10-17T10:50:14.283Z,83.22
2022-10-17T10:51:14.253Z,83.62
2022-10-17T10:52:14.244Z,83.83
2022-10-17T10:53:14.236Z,84.43
2022-10-17T10:54:14.259Z,83.32
2022-10-17T10:55:14.228Z,83.12
2022-10-17T10:56:14.226Z,83.72
2022-10-17T10:57:14.197Z,83.62
2022-10-17T10:58:14.177Z,82.71
2022-10-17T10:59:14.192Z,82.78
2022-10-17T11:00:14.189Z,82.88
2022-10-17T11:01:14.271Z,82.84
2022-10-17T11:02:14.175Z,81.37
2022-10-17T11:03:14.119Z,80.73
2022-10-17T11:04:14.131Z,81.73
2022-10-17T11:05:14.116Z,81.13
2022-10-17T11:06:14.101Z,80.52
2022-10-17T11:07:14.105Z,80.02
2022-10-17T11:08:14.060Z,80.22
2022-10-17T11:09:14.061Z,80.49
2022-10-17T11:10:14.064Z,81.09
2022-10-17T11:11:14.035Z,80.39
2022-10-17T11:12:14.028Z,80.49
2022-10-17T11:13:14.045Z,80.65
2022-10-17T11:14:13.993Z,80.15
2022-10-17T11:15:14.014Z,79.64
2022-10-17T11:16:13.985Z,79.10
2022-10-17T11:17:13.974Z,78.60
2022-10-17T11:18:13.965Z,78.70
2022-10-17T11:19:13.950Z,78.80
2022-10-17T11:20:13.927Z,78.36
2022-10-17T11:21:13.987Z,78.97
2022-10-17T11:22:13.905Z,78.46
2022-10-17T11:23:13.908Z,77.72
2022-10-17T11:24:13.909Z,77.02
2022-10-17T11:25:13.881Z,76.42
2022-10-17T11:26:13.883Z,76.82
2022-10-17T11:27:13.886Z,76.21
2022-10-17T11:28:13.844Z,76.32
2022-10-17T11:29:13.856Z,75.98
2022-10-17T11:30:13.853Z,76.08
2022-10-17T11:31:13.822Z,75.98
2022-10-17T11:32:13.806Z,76.12
2022-10-17T11:33:13.805Z,74.57
2022-10-17T11:34:13.793Z,75.98
2022-10-17T11:35:13.778Z,74.98
2022-10-17T11:36:13.757Z,74.37
2022-10-17T11:37:13.740Z,74.51
2022-10-17T11:38:13.731Z,73.81
2022-10-17T11:39:13.751Z,74.01
2022-10-17T11:40:13.759Z,73.67
2022-10-17T11:41:13.694Z,74.37
2022-10-17T11:42:13.738Z,73.97
2022-10-17T11:43:13.681Z,73.87
2022-10-17T11:44:13.697Z,74.48
2022-10-17T11:45:13.659Z,74.68
2022-10-17T11:46:13.669Z,75.14
2022-10-17T11:47:13.628Z,73.47
2022-10-17T11:48:13.664Z,74.14
2022-10-17T11:49:18.991Z,73.64
2022-10-17T11:52:19.487Z,73.94
2022-10-17T11:53:14.579Z,72.74
2022-10-17T11:54:13.643Z,72.83
2022-10-17T11:55:13.592Z,72.83
2022-10-17T11:56:13.532Z,72.94
2022-10-17T11:57:14.770Z,73.33
2022-10-17T11:58:13.562Z,73.33
2022-10-17T11:59:13.496Z,71.43
2022-10-17T12:00:13.502Z,71.23
2022-10-17T12:01:13.501Z,71.09
2022-10-17T12:02:13.467Z,71.90
2022-10-17T12:03:13.477Z,71.93
2022-10-17T12:04:13.480Z,72.09
2022-10-17T12:05:13.476Z,72.70
2022-10-17T12:06:13.448Z,72.90
2022-10-17T12:07:13.431Z,73.30
2022-10-17T12:08:13.408Z,72.80
2022-10-17T12:09:13.411Z,72.70
2022-10-17T12:10:13.377Z,72.40
2022-10-17T12:11:13.377Z,73.80
2022-10-17T12:12:13.358Z,72.80
2022-10-17T12:13:13.342Z,72.70
2022-10-17T12:14:13.396Z,72.90
2022-10-17T12:15:13.450Z,72.70
2022-10-17T12:16:16.806Z,73.50
2022-10-17T12:17:13.302Z,73.57
2022-10-17T12:18:13.297Z,72.36
2022-10-17T12:19:13.286Z,71.26
2022-10-17T12:20:13.276Z,71.66
2022-10-17T12:21:13.294Z,71.66
2022-10-17T12:22:13.244Z,72.47
2022-10-17T12:23:13.236Z,73.16
2022-10-17T12:24:18.174Z,73.47
2022-10-17T12:25:14.208Z,74.07
2022-10-17T12:26:13.226Z,72.56
2022-10-17T12:27:13.184Z,73.60
2022-10-17T12:28:13.198Z,72.09
2022-10-17T12:29:13.170Z,72.77
2022-10-17T12:30:13.175Z,72.27
2022-10-17T12:31:13.164Z,72.77
2022-10-17T12:32:13.131Z,72.86
2022-10-17T12:33:13.136Z,72.77
2022-10-17T12:34:13.113Z,72.63
2022-10-17T12:35:13.107Z,72.83
2022-10-17T12:36:13.135Z,71.53
2022-10-17T12:37:13.105Z,73.23
2022-10-17T12:38:13.094Z,73.03
2022-10-17T12:39:13.078Z,73.23
2022-10-17T12:40:13.043Z,71.43
2022-10-17T12:41:13.067Z,72.73
2022-10-17T12:42:13.404Z,73.39
2022-10-17T12:43:13.051Z,74.00
2022-10-17T12:44:13.045Z,73.39
2022-10-17T12:45:12.988Z,70.69
2022-10-17T12:46:12.999Z,70.69
2022-10-17T12:47:12.996Z,71.50
2022-10-17T12:48:12.995Z,72.89
2022-10-17T12:49:12.971Z,72.50
2022-10-17T12:50:12.932Z,72.00
2022-10-17T12:52:13.921Z,72.89
2022-10-17T12:53:16.896Z,70.89
2022-10-17T12:54:13.941Z,71.00
2022-10-17T12:55:14.016Z,71.80
2022-10-17T12:56:12.867Z,71.80
2022-10-17T12:57:12.854Z,71.19